sensor_id;sensor_type;location;lat;lon;timestamp;P1;durP1;ratioP1;P2;durP2;ratioP2
15645;SDS011;7922;43.622;1.476;2022-08-20T00:00:38;8.47;;;7.00;;
15645;SDS011;7922;43.622;1.476;2022-08-20T00:03:10;7.97;;;6.40;;
15645;SDS011;7922;43.622;1.476;2022-08-20T00:05:41;8.23;;;7.30;;
15645;SDS011;7922;43.622;1.476;2022-08-20T00:08:10;7.53;;;6.70;;
15645;SDS011;7922;43.622;1.476;2022-08-20T00:10:38;6.63;;;6.03;;
15645;SDS011;7922;43.622;1.476;2022-08-20T00:13:06;7.13;;;6.43;;
15645;SDS011;7922;43.622;1.476;2022-08-20T00:15:35;7.97;;;6.93;;
15645;SDS011;7922;43.622;1.476;2022-08-20T00:18:03;7.93;;;7.13;;
15645;SDS011;7922;43.622;1.476;2022-08-20T00:20:31;7.57;;;6.87;;
15645;SDS011;7922;43.622;1.476;2022-08-20T00:22:59;8.43;;;6.30;;
15645;SDS011;7922;43.622;1.476;2022-08-20T00:25:26;8.80;;;6.70;;
15645;SDS011;7922;43.622;1.476;2022-08-20T00:27:52;6.57;;;5.90;;
15645;SDS011;7922;43.622;1.476;2022-08-20T00:30:19;6.23;;;5.63;;
15645;SDS011;7922;43.622;1.476;2022-08-20T00:32:46;6.10;;;5.60;;
15645;SDS011;7922;43.622;1.476;2022-08-20T00:35:21;7.70;;;5.87;;
15645;SDS011;7922;43.622;1.476;2022-08-20T00:37:48;6.03;;;5.43;;
15645;SDS011;7922;43.622;1.476;2022-08-20T00:40:15;6.83;;;6.10;;
15645;SDS011;7922;43.622;1.476;2022-08-20T00:42:45;7.63;;;5.70;;
15645;SDS011;7922;43.622;1.476;2022-08-20T00:45:13;7.93;;;5.43;;
15645;SDS011;7922;43.622;1.476;2022-08-20T00:47:40;7.13;;;5.77;;
15645;SDS011;7922;43.622;1.476;2022-08-20T00:50:14;5.40;;;4.90;;
15645;SDS011;7922;43.622;1.476;2022-08-20T00:52:44;5.60;;;5.10;;
15645;SDS011;7922;43.622;1.476;2022-08-20T00:55:13;6.00;;;5.40;;
15645;SDS011;7922;43.622;1.476;2022-08-20T00:57:51;6.30;;;5.20;;
15645;SDS011;7922;43.622;1.476;2022-08-20T01:00:23;5.77;;;5.23;;
15645;SDS011;7922;43.622;1.476;2022-08-20T01:02:51;5.93;;;5.43;;
15645;SDS011;7922;43.622;1.476;2022-08-20T01:05:17;5.80;;;5.20;;
15645;SDS011;7922;43.622;1.476;2022-08-20T01:07:44;5.97;;;5.40;;
15645;SDS011;7922;43.622;1.476;2022-08-20T01:10:14;5.70;;;5.20;;
15645;SDS011;7922;43.622;1.476;2022-08-20T01:12:43;6.00;;;5.40;;
15645;SDS011;7922;43.622;1.476;2022-08-20T01:15:11;5.93;;;5.43;;
15645;SDS011;7922;43.622;1.476;2022-08-20T01:17:43;6.60;;;5.83;;
15645;SDS011;7922;43.622;1.476;2022-08-20T01:20:37;7.53;;;6.07;;
15645;SDS011;7922;43.622;1.476;2022-08-20T01:23:17;6.77;;;5.50;;
15645;SDS011;7922;43.622;1.476;2022-08-20T01:31:23;6.17;;;5.20;;
15645;SDS011;7922;43.622;1.476;2022-08-20T01:33:52;6.33;;;5.70;;
15645;SDS011;7922;43.622;1.476;2022-08-20T01:36:22;6.10;;;5.63;;
15645;SDS011;7922;43.622;1.476;2022-08-20T01:38:54;5.97;;;5.37;;
15645;SDS011;7922;43.622;1.476;2022-08-20T01:43:50;6.10;;;5.60;;
15645;SDS011;7922;43.622;1.476;2022-08-20T01:46:25;6.40;;;5.80;;
15645;SDS011;7922;43.622;1.476;2022-08-20T01:48:53;5.90;;;5.27;;
15645;SDS011;7922;43.622;1.476;2022-08-20T01:51:26;6.67;;;5.63;;
15645;SDS011;7922;43.622;1.476;2022-08-20T01:53:55;5.97;;;5.40;;
15645;SDS011;7922;43.622;1.476;2022-08-20T01:56:24;5.67;;;5.17;;
15645;SDS011;7922;43.622;1.476;2022-08-20T01:58:53;6.20;;;5.60;;
15645;SDS011;7922;43.622;1.476;2022-08-20T02:01:26;6.37;;;5.80;;
15645;SDS011;7922;43.622;1.476;2022-08-20T02:03:52;6.03;;;5.43;;
15645;SDS011;7922;43.622;1.476;2022-08-20T02:06:18;6.20;;;5.60;;
15645;SDS011;7922;43.622;1.476;2022-08-20T02:08:49;6.40;;;5.77;;
15645;SDS011;7922;43.622;1.476;2022-08-20T02:11:16;7.40;;;5.87;;
15645;SDS011;7922;43.622;1.476;2022-08-20T02:13:42;5.87;;;5.37;;
15645;SDS011;7922;43.622;1.476;2022-08-20T02:16:08;6.00;;;5.43;;
15645;SDS011;7922;43.622;1.476;2022-08-20T02:18:33;6.80;;;5.70;;
15645;SDS011;7922;43.622;1.476;2022-08-20T02:21:00;6.10;;;5.17;;
15645;SDS011;7922;43.622;1.476;2022-08-20T02:23:26;5.60;;;4.93;;
15645;SDS011;7922;43.622;1.476;2022-08-20T02:25:52;5.77;;;5.27;;
15645;SDS011;7922;43.622;1.476;2022-08-20T02:28:17;5.90;;;5.03;;
15645;SDS011;7922;43.622;1.476;2022-08-20T02:30:46;6.37;;;5.77;;
15645;SDS011;7922;43.622;1.476;2022-08-20T02:33:15;6.07;;;5.47;;
15645;SDS011;7922;43.622;1.476;2022-08-20T02:35:43;6.33;;;5.73;;
15645;SDS011;7922;43.622;1.476;2022-08-20T02:38:11;6.20;;;5.60;;
15645;SDS011;7922;43.622;1.476;2022-08-20T02:40:37;6.10;;;5.50;;
15645;SDS011;7922;43.622;1.476;2022-08-20T02:43:04;6.23;;;5.73;;
15645;SDS011;7922;43.622;1.476;2022-08-20T02:45:31;5.80;;;5.27;;
15645;SDS011;7922;43.622;1.476;2022-08-20T02:48:01;5.37;;;4.87;;
15645;SDS011;7922;43.622;1.476;2022-08-20T02:50:28;9.60;;;5.80;;
15645;SDS011;7922;43.622;1.476;2022-08-20T02:52:54;6.47;;;5.73;;
15645;SDS011;7922;43.622;1.476;2022-08-20T02:55:20;6.13;;;5.60;;
15645;SDS011;7922;43.622;1.476;2022-08-20T02:57:47;6.03;;;5.53;;
15645;SDS011;7922;43.622;1.476;2022-08-20T03:00:15;6.73;;;5.40;;
15645;SDS011;7922;43.622;1.476;2022-08-20T03:02:42;6.20;;;5.70;;
15645;SDS011;7922;43.622;1.476;2022-08-20T03:05:10;6.07;;;5.43;;
15645;SDS011;7922;43.622;1.476;2022-08-20T03:07:43;5.80;;;5.33;;
15645;SDS011;7922;43.622;1.476;2022-08-20T03:10:13;6.50;;;6.00;;
15645;SDS011;7922;43.622;1.476;2022-08-20T03:12:39;8.97;;;5.30;;
15645;SDS011;7922;43.622;1.476;2022-08-20T03:15:06;5.80;;;5.17;;
15645;SDS011;7922;43.622;1.476;2022-08-20T03:17:34;6.43;;;5.83;;
15645;SDS011;7922;43.622;1.476;2022-08-20T03:20:00;7.20;;;5.33;;
15645;SDS011;7922;43.622;1.476;2022-08-20T03:22:28;6.20;;;5.33;;
15645;SDS011;7922;43.622;1.476;2022-08-20T03:24:53;6.50;;;6.00;;
15645;SDS011;7922;43.622;1.476;2022-08-20T03:27:20;6.67;;;5.23;;
15645;SDS011;7922;43.622;1.476;2022-08-20T03:29:46;6.10;;;5.47;;
15645;SDS011;7922;43.622;1.476;2022-08-20T03:32:11;5.80;;;5.20;;
15645;SDS011;7922;43.622;1.476;2022-08-20T03:34:37;6.97;;;6.37;;
15645;SDS011;7922;43.622;1.476;2022-08-20T03:37:03;6.27;;;5.63;;
15645;SDS011;7922;43.622;1.476;2022-08-20T03:39:29;6.20;;;5.60;;
15645;SDS011;7922;43.622;1.476;2022-08-20T03:41:55;5.90;;;5.37;;
15645;SDS011;7922;43.622;1.476;2022-08-20T03:44:20;6.07;;;5.47;;
15645;SDS011;7922;43.622;1.476;2022-08-20T03:46:46;6.47;;;5.70;;
15645;SDS011;7922;43.622;1.476;2022-08-20T03:49:12;6.27;;;5.67;;
15645;SDS011;7922;43.622;1.476;2022-08-20T03:51:38;6.10;;;5.50;;
15645;SDS011;7922;43.622;1.476;2022-08-20T03:54:04;6.27;;;5.67;;
15645;SDS011;7922;43.622;1.476;2022-08-20T03:56:30;5.93;;;5.33;;
15645;SDS011;7922;43.622;1.476;2022-08-20T03:58:55;7.57;;;5.57;;
15645;SDS011;7922;43.622;1.476;2022-08-20T04:01:21;6.53;;;5.87;;
15645;SDS011;7922;43.622;1.476;2022-08-20T04:03:47;5.93;;;5.43;;
15645;SDS011;7922;43.622;1.476;2022-08-20T04:06:12;6.20;;;5.60;;
15645;SDS011;7922;43.622;1.476;2022-08-20T04:08:38;6.93;;;5.57;;
15645;SDS011;7922;43.622;1.476;2022-08-20T04:11:06;6.13;;;5.60;;
15645;SDS011;7922;43.622;1.476;2022-08-20T04:13:32;6.20;;;5.60;;
15645;SDS011;7922;43.622;1.476;2022-08-20T04:16:01;7.57;;;5.33;;
15645;SDS011;7922;43.622;1.476;2022-08-20T04:18:30;6.23;;;5.37;;
15645;SDS011;7922;43.622;1.476;2022-08-20T04:20:56;9.50;;;5.33;;
15645;SDS011;7922;43.622;1.476;2022-08-20T04:23:22;6.03;;;5.43;;
15645;SDS011;7922;43.622;1.476;2022-08-20T04:25:49;5.33;;;4.93;;
15645;SDS011;7922;43.622;1.476;2022-08-20T04:28:19;6.43;;;5.77;;
15645;SDS011;7922;43.622;1.476;2022-08-20T04:30:49;6.63;;;5.23;;
15645;SDS011;7922;43.622;1.476;2022-08-20T04:33:16;6.80;;;5.67;;
15645;SDS011;7922;43.622;1.476;2022-08-20T04:35:43;6.10;;;4.83;;
15645;SDS011;7922;43.622;1.476;2022-08-20T04:38:10;6.33;;;4.63;;
15645;SDS011;7922;43.622;1.476;2022-08-20T04:40:40;6.10;;;5.50;;
15645;SDS011;7922;43.622;1.476;2022-08-20T04:43:18;6.17;;;5.30;;
15645;SDS011;7922;43.622;1.476;2022-08-20T04:45:47;8.80;;;5.13;;
15645;SDS011;7922;43.622;1.476;2022-08-20T04:48:13;6.80;;;5.23;;
15645;SDS011;7922;43.622;1.476;2022-08-20T04:50:39;7.27;;;5.17;;
15645;SDS011;7922;43.622;1.476;2022-08-20T04:53:10;6.10;;;5.40;;
15645;SDS011;7922;43.622;1.476;2022-08-20T04:55:38;5.63;;;5.13;;
15645;SDS011;7922;43.622;1.476;2022-08-20T04:58:15;6.30;;;5.03;;
15645;SDS011;7922;43.622;1.476;2022-08-20T05:00:49;5.70;;;5.20;;
15645;SDS011;7922;43.622;1.476;2022-08-20T05:03:16;5.90;;;5.30;;
15645;SDS011;7922;43.622;1.476;2022-08-20T05:05:43;6.23;;;5.50;;
15645;SDS011;7922;43.622;1.476;2022-08-20T05:08:11;6.60;;;5.63;;
15645;SDS011;7922;43.622;1.476;2022-08-20T05:10:37;5.80;;;5.30;;
15645;SDS011;7922;43.622;1.476;2022-08-20T05:13:04;5.83;;;4.80;;
15645;SDS011;7922;43.622;1.476;2022-08-20T05:15:31;5.30;;;4.80;;
15645;SDS011;7922;43.622;1.476;2022-08-20T05:17:57;5.73;;;5.17;;
15645;SDS011;7922;43.622;1.476;2022-08-20T05:20:29;6.27;;;5.33;;
15645;SDS011;7922;43.622;1.476;2022-08-20T05:22:57;5.63;;;4.93;;
15645;SDS011;7922;43.622;1.476;2022-08-20T05:25:24;5.60;;;5.10;;
15645;SDS011;7922;43.622;1.476;2022-08-20T05:27:58;6.33;;;5.37;;
15645;SDS011;7922;43.622;1.476;2022-08-20T05:30:31;7.20;;;5.97;;
15645;SDS011;7922;43.622;1.476;2022-08-20T05:33:04;5.53;;;5.03;;
15645;SDS011;7922;43.622;1.476;2022-08-20T05:35:31;6.10;;;5.57;;
15645;SDS011;7922;43.622;1.476;2022-08-20T05:38:03;6.23;;;5.13;;
15645;SDS011;7922;43.622;1.476;2022-08-20T05:40:30;6.73;;;5.17;;
15645;SDS011;7922;43.622;1.476;2022-08-20T05:42:56;6.47;;;5.23;;
15645;SDS011;7922;43.622;1.476;2022-08-20T05:45:21;5.73;;;5.10;;
15645;SDS011;7922;43.622;1.476;2022-08-20T05:47:47;5.53;;;4.90;;
15645;SDS011;7922;43.622;1.476;2022-08-20T05:50:14;5.27;;;4.67;;
15645;SDS011;7922;43.622;1.476;2022-08-20T05:52:41;6.27;;;5.00;;
15645;SDS011;7922;43.622;1.476;2022-08-20T05:55:09;7.57;;;5.33;;
15645;SDS011;7922;43.622;1.476;2022-08-20T05:57:40;5.77;;;5.13;;
15645;SDS011;7922;43.622;1.476;2022-08-20T06:00:07;8.20;;;4.97;;
15645;SDS011;7922;43.622;1.476;2022-08-20T06:02:35;5.63;;;5.13;;
15645;SDS011;7922;43.622;1.476;2022-08-20T06:05:19;5.60;;;5.10;;
15645;SDS011;7922;43.622;1.476;2022-08-20T06:07:45;5.47;;;4.97;;
15645;SDS011;7922;43.622;1.476;2022-08-20T06:10:11;5.93;;;4.63;;
15645;SDS011;7922;43.622;1.476;2022-08-20T06:12:37;5.53;;;4.93;;
15645;SDS011;7922;43.622;1.476;2022-08-20T06:15:04;5.47;;;4.97;;
15645;SDS011;7922;43.622;1.476;2022-08-20T06:17:30;5.57;;;4.40;;
15645;SDS011;7922;43.622;1.476;2022-08-20T06:19:58;4.57;;;4.17;;
15645;SDS011;7922;43.622;1.476;2022-08-20T06:22:27;5.33;;;4.53;;
15645;SDS011;7922;43.622;1.476;2022-08-20T06:24:52;4.90;;;4.50;;
15645;SDS011;7922;43.622;1.476;2022-08-20T06:27:19;5.57;;;4.30;;
15645;SDS011;7922;43.622;1.476;2022-08-20T06:29:45;5.03;;;4.60;;
15645;SDS011;7922;43.622;1.476;2022-08-20T06:32:11;5.67;;;4.50;;
15645;SDS011;7922;43.622;1.476;2022-08-20T06:34:38;5.03;;;3.90;;
15645;SDS011;7922;43.622;1.476;2022-08-20T06:37:12;4.80;;;4.30;;
15645;SDS011;7922;43.622;1.476;2022-08-20T06:39:39;5.13;;;3.97;;
15645;SDS011;7922;43.622;1.476;2022-08-20T06:42:06;4.20;;;3.83;;
15645;SDS011;7922;43.622;1.476;2022-08-20T06:44:31;5.17;;;3.70;;
15645;SDS011;7922;43.622;1.476;2022-08-20T06:47:04;4.60;;;3.60;;
15645;SDS011;7922;43.622;1.476;2022-08-20T06:49:33;5.03;;;3.57;;
15645;SDS011;7922;43.622;1.476;2022-08-20T06:52:00;4.77;;;4.13;;
15645;SDS011;7922;43.622;1.476;2022-08-20T06:54:27;4.03;;;3.63;;
15645;SDS011;7922;43.622;1.476;2022-08-20T06:56:53;4.17;;;3.83;;
15645;SDS011;7922;43.622;1.476;2022-08-20T06:59:24;4.00;;;3.60;;
15645;SDS011;7922;43.622;1.476;2022-08-20T07:01:49;4.70;;;3.30;;
15645;SDS011;7922;43.622;1.476;2022-08-20T07:04:15;4.37;;;4.00;;
15645;SDS011;7922;43.622;1.476;2022-08-20T07:06:41;4.27;;;3.80;;
15645;SDS011;7922;43.622;1.476;2022-08-20T07:09:08;4.43;;;3.63;;
15645;SDS011;7922;43.622;1.476;2022-08-20T07:11:34;5.70;;;3.50;;
15645;SDS011;7922;43.622;1.476;2022-08-20T07:13:59;6.90;;;4.00;;
15645;SDS011;7922;43.622;1.476;2022-08-20T07:16:29;4.30;;;3.70;;
15645;SDS011;7922;43.622;1.476;2022-08-20T07:18:56;4.13;;;3.73;;
15645;SDS011;7922;43.622;1.476;2022-08-20T07:21:22;3.70;;;3.40;;
15645;SDS011;7922;43.622;1.476;2022-08-20T07:23:51;4.40;;;4.00;;
15645;SDS011;7922;43.622;1.476;2022-08-20T07:26:18;4.70;;;4.30;;
15645;SDS011;7922;43.622;1.476;2022-08-20T07:28:44;3.40;;;3.10;;
15645;SDS011;7922;43.622;1.476;2022-08-20T07:31:10;3.97;;;3.63;;
15645;SDS011;7922;43.622;1.476;2022-08-20T07:33:54;3.87;;;3.33;;
15645;SDS011;7922;43.622;1.476;2022-08-20T07:36:21;3.40;;;3.17;;
15645;SDS011;7922;43.622;1.476;2022-08-20T07:38:52;4.10;;;3.40;;
15645;SDS011;7922;43.622;1.476;2022-08-20T07:41:18;4.17;;;3.60;;
15645;SDS011;7922;43.622;1.476;2022-08-20T07:43:45;3.50;;;3.20;;
15645;SDS011;7922;43.622;1.476;2022-08-20T07:46:12;3.50;;;3.20;;
15645;SDS011;7922;43.622;1.476;2022-08-20T07:48:42;2.73;;;2.50;;
15645;SDS011;7922;43.622;1.476;2022-08-20T07:51:11;4.33;;;2.73;;
15645;SDS011;7922;43.622;1.476;2022-08-20T07:53:41;4.77;;;3.00;;
15645;SDS011;7922;43.622;1.476;2022-08-20T07:56:07;3.13;;;2.40;;
15645;SDS011;7922;43.622;1.476;2022-08-20T07:58:40;2.50;;;2.30;;
15645;SDS011;7922;43.622;1.476;2022-08-20T08:01:16;3.60;;;2.90;;
15645;SDS011;7922;43.622;1.476;2022-08-20T08:03:45;2.57;;;2.37;;
15645;SDS011;7922;43.622;1.476;2022-08-20T08:06:12;4.10;;;2.30;;
15645;SDS011;7922;43.622;1.476;2022-08-20T08:08:39;2.60;;;2.30;;
15645;SDS011;7922;43.622;1.476;2022-08-20T08:11:06;3.30;;;2.60;;
15645;SDS011;7922;43.622;1.476;2022-08-20T08:13:33;3.27;;;2.23;;
15645;SDS011;7922;43.622;1.476;2022-08-20T08:16:04;3.17;;;2.70;;
15645;SDS011;7922;43.622;1.476;2022-08-20T08:18:36;2.70;;;2.50;;
15645;SDS011;7922;43.622;1.476;2022-08-20T08:21:09;3.73;;;2.47;;
15645;SDS011;7922;43.622;1.476;2022-08-20T08:23:38;2.93;;;2.63;;
15645;SDS011;7922;43.622;1.476;2022-08-20T08:26:10;2.60;;;2.10;;
15645;SDS011;7922;43.622;1.476;2022-08-20T08:28:38;3.00;;;2.47;;
15645;SDS011;7922;43.622;1.476;2022-08-20T08:31:04;2.03;;;1.87;;
15645;SDS011;7922;43.622;1.476;2022-08-20T08:33:31;1.73;;;1.63;;
15645;SDS011;7922;43.622;1.476;2022-08-20T08:38:35;2.30;;;2.10;;
15645;SDS011;7922;43.622;1.476;2022-08-20T08:41:09;3.00;;;1.90;;
15645;SDS011;7922;43.622;1.476;2022-08-20T08:43:37;2.67;;;1.90;;
15645;SDS011;7922;43.622;1.476;2022-08-20T08:46:06;3.07;;;2.00;;
15645;SDS011;7922;43.622;1.476;2022-08-20T08:48:36;2.97;;;2.00;;
15645;SDS011;7922;43.622;1.476;2022-08-20T08:51:10;1.87;;;1.73;;
15645;SDS011;7922;43.622;1.476;2022-08-20T08:53:41;1.90;;;1.70;;
15645;SDS011;7922;43.622;1.476;2022-08-20T08:56:12;1.90;;;1.80;;
15645;SDS011;7922;43.622;1.476;2022-08-20T08:58:39;3.77;;;1.80;;
15645;SDS011;7922;43.622;1.476;2022-08-20T09:01:11;2.63;;;1.70;;
15645;SDS011;7922;43.622;1.476;2022-08-20T09:03:41;1.97;;;1.60;;
15645;SDS011;7922;43.622;1.476;2022-08-20T09:06:12;2.27;;;1.60;;
15645;SDS011;7922;43.622;1.476;2022-08-20T09:11:11;1.57;;;1.47;;
15645;SDS011;7922;43.622;1.476;2022-08-20T09:13:38;2.10;;;1.67;;
15645;SDS011;7922;43.622;1.476;2022-08-20T09:16:07;2.73;;;1.60;;
15645;SDS011;7922;43.622;1.476;2022-08-20T09:18:34;1.97;;;1.50;;
15645;SDS011;7922;43.622;1.476;2022-08-20T09:21:00;2.17;;;1.50;;
15645;SDS011;7922;43.622;1.476;2022-08-20T09:23:26;1.20;;;1.10;;
15645;SDS011;7922;43.622;1.476;2022-08-20T09:25:53;1.27;;;1.13;;
15645;SDS011;7922;43.622;1.476;2022-08-20T09:28:19;1.97;;;1.33;;
15645;SDS011;7922;43.622;1.476;2022-08-20T09:30:45;1.93;;;1.40;;
15645;SDS011;7922;43.622;1.476;2022-08-20T09:33:11;1.47;;;1.37;;
15645;SDS011;7922;43.622;1.476;2022-08-20T09:35:39;1.30;;;1.20;;
15645;SDS011;7922;43.622;1.476;2022-08-20T09:38:05;1.37;;;1.27;;
15645;SDS011;7922;43.622;1.476;2022-08-20T09:40:32;2.80;;;1.60;;
15645;SDS011;7922;43.622;1.476;2022-08-20T09:42:58;2.10;;;1.57;;
15645;SDS011;7922;43.622;1.476;2022-08-20T09:45:25;1.57;;;1.20;;
15645;SDS011;7922;43.622;1.476;2022-08-20T09:47:51;1.83;;;1.40;;
15645;SDS011;7922;43.622;1.476;2022-08-20T09:50:17;1.83;;;1.27;;
15645;SDS011;7922;43.622;1.476;2022-08-20T09:52:44;1.80;;;1.27;;
15645;SDS011;7922;43.622;1.476;2022-08-20T09:55:20;1.87;;;1.20;;
15645;SDS011;7922;43.622;1.476;2022-08-20T09:57:47;2.13;;;1.40;;
15645;SDS011;7922;43.622;1.476;2022-08-20T10:00:15;2.23;;;1.33;;
15645;SDS011;7922;43.622;1.476;2022-08-20T10:02:42;1.23;;;1.13;;
15645;SDS011;7922;43.622;1.476;2022-08-20T10:05:09;1.80;;;1.33;;
15645;SDS011;7922;43.622;1.476;2022-08-20T10:07:36;2.33;;;1.10;;
15645;SDS011;7922;43.622;1.476;2022-08-20T10:10:03;2.27;;;1.00;;
15645;SDS011;7922;43.622;1.476;2022-08-20T10:12:32;1.17;;;0.90;;
15645;SDS011;7922;43.622;1.476;2022-08-20T10:14:57;1.53;;;0.87;;
15645;SDS011;7922;43.622;1.476;2022-08-20T10:17:23;2.10;;;1.20;;
15645;SDS011;7922;43.622;1.476;2022-08-20T10:19:50;1.20;;;0.90;;
15645;SDS011;7922;43.622;1.476;2022-08-20T10:22:16;0.90;;;0.90;;
15645;SDS011;7922;43.622;1.476;2022-08-20T10:24:41;2.60;;;1.10;;
15645;SDS011;7922;43.622;1.476;2022-08-20T10:27:07;2.83;;;1.10;;
15645;SDS011;7922;43.622;1.476;2022-08-20T10:29:33;2.10;;;1.03;;
15645;SDS011;7922;43.622;1.476;2022-08-20T10:32:07;0.90;;;0.90;;
15645;SDS011;7922;43.622;1.476;2022-08-20T10:34:36;1.47;;;1.00;;
15645;SDS011;7922;43.622;1.476;2022-08-20T10:37:11;1.27;;;0.90;;
15645;SDS011;7922;43.622;1.476;2022-08-20T10:39:40;1.20;;;1.10;;
15645;SDS011;7922;43.622;1.476;2022-08-20T10:42:06;2.37;;;1.00;;
15645;SDS011;7922;43.622;1.476;2022-08-20T10:44:32;2.50;;;0.90;;
15645;SDS011;7922;43.622;1.476;2022-08-20T10:46:59;1.10;;;1.00;;
15645;SDS011;7922;43.622;1.476;2022-08-20T10:49:37;1.10;;;1.00;;
15645;SDS011;7922;43.622;1.476;2022-08-20T10:52:03;0.73;;;0.70;;
15645;SDS011;7922;43.622;1.476;2022-08-20T10:54:29;1.17;;;1.07;;
15645;SDS011;7922;43.622;1.476;2022-08-20T10:56:59;1.30;;;0.90;;
15645;SDS011;7922;43.622;1.476;2022-08-20T10:59:26;1.43;;;0.90;;
15645;SDS011;7922;43.622;1.476;2022-08-20T11:01:52;1.13;;;1.00;;
15645;SDS011;7922;43.622;1.476;2022-08-20T11:04:17;0.97;;;0.90;;
15645;SDS011;7922;43.622;1.476;2022-08-20T11:06:43;1.10;;;0.90;;
15645;SDS011;7922;43.622;1.476;2022-08-20T11:09:09;1.70;;;1.00;;
15645;SDS011;7922;43.622;1.476;2022-08-20T11:11:35;1.70;;;0.80;;
15645;SDS011;7922;43.622;1.476;2022-08-20T11:14:01;1.53;;;1.03;;
15645;SDS011;7922;43.622;1.476;2022-08-20T11:16:26;0.88;;;0.80;;
15645;SDS011;7922;43.622;1.476;2022-08-20T11:18:56;1.25;;;0.85;;
15645;SDS011;7922;43.622;1.476;2022-08-20T11:21:22;1.70;;;1.10;;
15645;SDS011;7922;43.622;1.476;2022-08-20T11:23:48;1.13;;;0.90;;
15645;SDS011;7922;43.622;1.476;2022-08-20T11:26:17;1.02;;;1.00;;
15645;SDS011;7922;43.622;1.476;2022-08-20T11:28:49;2.20;;;1.02;;
15645;SDS011;7922;43.622;1.476;2022-08-20T11:31:18;1.23;;;1.13;;
15645;SDS011;7922;43.622;1.476;2022-08-20T11:33:44;1.77;;;0.90;;
15645;SDS011;7922;43.622;1.476;2022-08-20T11:36:10;0.90;;;0.80;;
15645;SDS011;7922;43.622;1.476;2022-08-20T11:38:36;2.53;;;0.90;;
15645;SDS011;7922;43.622;1.476;2022-08-20T11:41:02;1.67;;;1.10;;
15645;SDS011;7922;43.622;1.476;2022-08-20T11:43:28;0.93;;;0.65;;
15645;SDS011;7922;43.622;1.476;2022-08-20T11:45:54;0.95;;;0.65;;
15645;SDS011;7922;43.622;1.476;2022-08-20T11:48:21;0.95;;;0.68;;
15645;SDS011;7922;43.622;1.476;2022-08-20T11:50:48;0.80;;;0.80;;
15645;SDS011;7922;43.622;1.476;2022-08-20T11:53:14;1.27;;;0.80;;
15645;SDS011;7922;43.622;1.476;2022-08-20T11:55:40;0.80;;;0.65;;
15645;SDS011;7922;43.622;1.476;2022-08-20T11:58:06;1.98;;;0.75;;
15645;SDS011;7922;43.622;1.476;2022-08-20T12:00:33;1.13;;;0.85;;
15645;SDS011;7922;43.622;1.476;2022-08-20T12:03:01;0.98;;;0.88;;
15645;SDS011;7922;43.622;1.476;2022-08-20T12:05:28;1.13;;;0.80;;
15645;SDS011;7922;43.622;1.476;2022-08-20T12:07:55;0.70;;;0.70;;
15645;SDS011;7922;43.622;1.476;2022-08-20T12:10:21;1.00;;;0.80;;
15645;SDS011;7922;43.622;1.476;2022-08-20T12:12:48;1.17;;;0.98;;
15645;SDS011;7922;43.622;1.476;2022-08-20T12:15:14;1.42;;;0.70;;
15645;SDS011;7922;43.622;1.476;2022-08-20T12:17:39;1.50;;;0.85;;
15645;SDS011;7922;43.622;1.476;2022-08-20T12:20:07;1.20;;;0.70;;
15645;SDS011;7922;43.622;1.476;2022-08-20T12:22:34;0.82;;;0.80;;
15645;SDS011;7922;43.622;1.476;2022-08-20T12:25:00;0.50;;;0.50;;
15645;SDS011;7922;43.622;1.476;2022-08-20T12:27:27;1.02;;;0.57;;
15645;SDS011;7922;43.622;1.476;2022-08-20T12:29:55;0.95;;;0.85;;
15645;SDS011;7922;43.622;1.476;2022-08-20T12:32:24;1.65;;;0.85;;
15645;SDS011;7922;43.622;1.476;2022-08-20T12:34:51;0.73;;;0.70;;
15645;SDS011;7922;43.622;1.476;2022-08-20T12:37:19;2.67;;;0.80;;
15645;SDS011;7922;43.622;1.476;2022-08-20T12:39:48;0.60;;;0.60;;
15645;SDS011;7922;43.622;1.476;2022-08-20T12:42:16;0.70;;;0.65;;
15645;SDS011;7922;43.622;1.476;2022-08-20T12:44:42;1.42;;;0.60;;
15645;SDS011;7922;43.622;1.476;2022-08-20T12:47:12;0.60;;;0.55;;
15645;SDS011;7922;43.622;1.476;2022-08-20T12:49:44;1.13;;;0.70;;
15645;SDS011;7922;43.622;1.476;2022-08-20T12:52:16;0.70;;;0.60;;
15645;SDS011;7922;43.622;1.476;2022-08-20T12:54:43;0.70;;;0.70;;
15645;SDS011;7922;43.622;1.476;2022-08-20T12:57:14;0.65;;;0.57;;
15645;SDS011;7922;43.622;1.476;2022-08-20T12:59:41;0.80;;;0.60;;
15645;SDS011;7922;43.622;1.476;2022-08-20T13:02:06;1.48;;;0.68;;
15645;SDS011;7922;43.622;1.476;2022-08-20T13:04:32;0.55;;;0.55;;
15645;SDS011;7922;43.622;1.476;2022-08-20T13:07:01;0.68;;;0.60;;
15645;SDS011;7922;43.622;1.476;2022-08-20T13:09:28;0.70;;;0.60;;
15645;SDS011;7922;43.622;1.476;2022-08-20T13:11:53;1.00;;;0.75;;
15645;SDS011;7922;43.622;1.476;2022-08-20T13:14:19;1.02;;;0.65;;
15645;SDS011;7922;43.622;1.476;2022-08-20T13:16:45;0.50;;;0.50;;
15645;SDS011;7922;43.622;1.476;2022-08-20T13:19:10;0.75;;;0.60;;
15645;SDS011;7922;43.622;1.476;2022-08-20T13:21:36;0.73;;;0.57;;
15645;SDS011;7922;43.622;1.476;2022-08-20T13:24:02;0.80;;;0.68;;
15645;SDS011;7922;43.622;1.476;2022-08-20T13:26:28;0.88;;;0.68;;
15645;SDS011;7922;43.622;1.476;2022-08-20T13:28:54;0.70;;;0.68;;
15645;SDS011;7922;43.622;1.476;2022-08-20T13:31:19;1.58;;;0.50;;
15645;SDS011;7922;43.622;1.476;2022-08-20T13:33:45;1.25;;;0.60;;
15645;SDS011;7922;43.622;1.476;2022-08-20T13:36:11;0.93;;;0.60;;
15645;SDS011;7922;43.622;1.476;2022-08-20T13:38:37;0.70;;;0.60;;
15645;SDS011;7922;43.622;1.476;2022-08-20T13:41:03;0.40;;;0.40;;
15645;SDS011;7922;43.622;1.476;2022-08-20T13:43:28;1.23;;;0.60;;
15645;SDS011;7922;43.622;1.476;2022-08-20T13:45:54;0.68;;;0.68;;
15645;SDS011;7922;43.622;1.476;2022-08-20T13:48:20;0.50;;;0.50;;
15645;SDS011;7922;43.622;1.476;2022-08-20T13:50:46;0.60;;;0.50;;
15645;SDS011;7922;43.622;1.476;2022-08-20T13:53:11;0.50;;;0.50;;
15645;SDS011;7922;43.622;1.476;2022-08-20T13:55:37;0.50;;;0.50;;
15645;SDS011;7922;43.622;1.476;2022-08-20T13:58:03;3.95;;;0.47;;
15645;SDS011;7922;43.622;1.476;2022-08-20T14:00:30;0.50;;;0.50;;
15645;SDS011;7922;43.622;1.476;2022-08-20T14:02:58;0.98;;;0.57;;
15645;SDS011;7922;43.622;1.476;2022-08-20T14:05:25;1.10;;;0.40;;
15645;SDS011;7922;43.622;1.476;2022-08-20T14:07:51;0.80;;;0.50;;
15645;SDS011;7922;43.622;1.476;2022-08-20T14:10:19;0.80;;;0.40;;
15645;SDS011;7922;43.622;1.476;2022-08-20T14:12:48;0.40;;;0.40;;
15645;SDS011;7922;43.622;1.476;2022-08-20T14:15:14;0.40;;;0.40;;
15645;SDS011;7922;43.622;1.476;2022-08-20T14:17:41;0.82;;;0.50;;
15645;SDS011;7922;43.622;1.476;2022-08-20T14:20:13;0.38;;;0.38;;
15645;SDS011;7922;43.622;1.476;2022-08-20T14:22:40;2.97;;;0.75;;
15645;SDS011;7922;43.622;1.476;2022-08-20T14:25:07;0.68;;;0.50;;
15645;SDS011;7922;43.622;1.476;2022-08-20T14:27:35;0.70;;;0.50;;
15645;SDS011;7922;43.622;1.476;2022-08-20T14:30:03;0.45;;;0.45;;
15645;SDS011;7922;43.622;1.476;2022-08-20T14:32:30;0.40;;;0.40;;
15645;SDS011;7922;43.622;1.476;2022-08-20T14:34:56;0.60;;;0.55;;
15645;SDS011;7922;43.622;1.476;2022-08-20T14:37:24;1.30;;;0.57;;
15645;SDS011;7922;43.622;1.476;2022-08-20T14:39:53;0.50;;;0.40;;
15645;SDS011;7922;43.622;1.476;2022-08-20T14:42:21;0.40;;;0.40;;
15645;SDS011;7922;43.622;1.476;2022-08-20T14:44:48;0.82;;;0.30;;
15645;SDS011;7922;43.622;1.476;2022-08-20T14:49:42;0.43;;;0.40;;
15645;SDS011;7922;43.622;1.476;2022-08-20T14:52:08;2.17;;;0.45;;
15645;SDS011;7922;43.622;1.476;2022-08-20T14:54:34;0.50;;;0.40;;
15645;SDS011;7922;43.622;1.476;2022-08-20T14:57:00;0.40;;;0.40;;
15645;SDS011;7922;43.622;1.476;2022-08-20T14:59:26;1.00;;;0.50;;
15645;SDS011;7922;43.622;1.476;2022-08-20T15:01:52;1.15;;;0.57;;
15645;SDS011;7922;43.622;1.476;2022-08-20T15:04:18;0.40;;;0.40;;
15645;SDS011;7922;43.622;1.476;2022-08-20T15:06:44;0.80;;;0.50;;
15645;SDS011;7922;43.622;1.476;2022-08-20T15:09:10;1.25;;;0.50;;
15645;SDS011;7922;43.622;1.476;2022-08-20T15:11:37;0.77;;;0.50;;
15645;SDS011;7922;43.622;1.476;2022-08-20T15:14:05;0.60;;;0.60;;
15645;SDS011;7922;43.622;1.476;2022-08-20T15:16:31;0.70;;;0.60;;
15645;SDS011;7922;43.622;1.476;2022-08-20T15:18:57;0.55;;;0.55;;